createdAt,value
2022-11-05T00:01:53.194Z,81.59
2022-11-05T00:04:42.325Z,81.46
2022-11-05T00:07:34.820Z,81.46
2022-11-05T00:10:11.135Z,81.45
2022-11-05T00:13:00.501Z,81.83
2022-11-05T00:15:49.894Z,81.63
2022-11-05T00:18:21.619Z,81.69
2022-11-05T00:20:53.259Z,81.75
2022-11-05T00:23:43.120Z,81.91
2022-11-05T00:26:15.302Z,82.05
2022-11-05T00:28:48.350Z,81.90
2022-11-05T00:31:20.016Z,81.80
2022-11-05T00:33:51.624Z,81.91
2022-11-05T00:36:23.400Z,82.18
2022-11-05T00:38:55.040Z,82.08
2022-11-05T00:41:26.673Z,82.16
2022-11-05T00:44:15.903Z,82.05
2022-11-05T00:46:47.657Z,82.13
2022-11-05T00:49:31.248Z,82.08
2022-11-05T00:52:17.120Z,82.42
2022-11-05T00:54:48.790Z,82.44
2022-11-05T00:57:20.853Z,82.35
2022-11-05T00:59:52.544Z,82.40
2022-11-05T01:02:24.517Z,82.44
2022-11-05T01:04:56.334Z,82.34
2022-11-05T01:07:28.024Z,82.67
2022-11-05T01:09:59.624Z,82.90
2022-11-05T01:12:32.304Z,82.63
2022-11-05T01:15:04.063Z,83.08
2022-11-05T01:17:35.720Z,83.11
2022-11-05T01:20:11.257Z,83.20
2022-11-05T01:22:43.006Z,83.20
2022-11-05T01:25:14.811Z,83.23
2022-11-05T01:27:46.791Z,83.70
2022-11-05T01:30:18.520Z,83.86
2022-11-05T01:32:50.195Z,83.57
2022-11-05T01:35:21.969Z,83.68
2022-11-05T01:37:53.635Z,83.40
2022-11-05T01:40:26.729Z,83.55
2022-11-05T01:42:58.404Z,83.32
2022-11-05T01:45:30.597Z,83.55
2022-11-05T01:48:08.025Z,83.64
2022-11-05T01:50:53.517Z,83.57
2022-11-05T01:53:30.293Z,83.50
2022-11-05T01:56:04.330Z,83.16
2022-11-05T01:58:40.700Z,83.47
2022-11-05T02:01:12.832Z,83.33
2022-11-05T02:03:46.163Z,83.94
2022-11-05T02:06:18.618Z,83.97
2022-11-05T02:08:57.101Z,83.48
2022-11-05T02:11:28.961Z,83.80
2022-11-05T02:14:00.739Z,83.42
2022-11-05T02:16:42.697Z,83.65
2022-11-05T02:19:49.498Z,83.75
2022-11-05T02:22:48.493Z,83.55
2022-11-05T02:25:50.523Z,83.77
2022-11-05T02:28:44.873Z,83.77
2022-11-05T02:31:24.814Z,83.73
2022-11-05T02:34:04.030Z,83.73
2022-11-05T02:36:47.249Z,83.74
2022-11-05T02:39:32.009Z,83.91
2022-11-05T02:42:11.545Z,83.82
2022-11-05T02:44:52.640Z,83.99
2022-11-05T02:47:25.706Z,84.32
2022-11-05T02:50:06.055Z,84.18
2022-11-05T02:52:50.570Z,84.17
2022-11-05T02:55:28.225Z,84.40
2022-11-05T02:58:00.823Z,84.31
2022-11-05T03:00:49.331Z,84.33
2022-11-05T03:03:35.203Z,84.27
2022-11-05T03:06:25.916Z,84.12
2022-11-05T03:09:27.613Z,84.32
2022-11-05T03:12:12.119Z,84.64
2022-11-05T03:14:53.623Z,84.63
2022-11-05T03:17:34.343Z,84.84
2022-11-05T03:20:15.251Z,84.87
2022-11-05T03:22:53.428Z,84.95
2022-11-05T03:25:30.411Z,84.94
2022-11-05T03:28:07.782Z,84.90
2022-11-05T03:30:42.207Z,84.65
2022-11-05T03:33:18.931Z,84.79
2022-11-05T03:35:54.513Z,84.69
2022-11-05T03:38:30.123Z,84.95
2022-11-05T03:41:06.058Z,84.60
2022-11-05T03:43:42.034Z,84.92
2022-11-05T03:46:22.758Z,84.62
2022-11-05T03:48:56.740Z,84.74
2022-11-05T03:51:45.290Z,84.69
2022-11-05T03:54:17.141Z,84.38
2022-11-05T03:56:58.528Z,84.56
2022-11-05T03:59:31.744Z,84.66
2022-11-05T04:02:05.377Z,84.79
2022-11-05T04:04:37.092Z,84.79
2022-11-05T04:07:27.178Z,84.92
2022-11-05T04:10:16.601Z,84.78
2022-11-05T04:13:08.944Z,84.82
2022-11-05T04:15:54.660Z,85.09
2022-11-05T04:18:26.428Z,84.73
2022-11-05T04:21:15.989Z,85.17
2022-11-05T04:24:05.258Z,85.15
2022-11-05T04:26:36.947Z,85.17
2022-11-05T04:29:27.218Z,84.92
2022-11-05T04:31:59.089Z,85.05
2022-11-05T04:34:31.144Z,84.80
2022-11-05T04:37:02.758Z,85.02
2022-11-05T04:39:34.413Z,84.93
2022-11-05T04:42:06.582Z,84.88
2022-11-05T04:44:38.506Z,84.58
2022-11-05T04:47:10.148Z,84.38
2022-11-05T04:49:41.792Z,84.41
2022-11-05T04:52:13.935Z,84.49
2022-11-05T04:54:45.756Z,84.42
2022-11-05T04:57:17.649Z,84.28
2022-11-05T04:59:52.160Z,84.17
2022-11-05T05:02:23.770Z,84.23
2022-11-05T05:04:56.014Z,84.25
2022-11-05T05:07:28.559Z,84.01
2022-11-05T05:10:00.177Z,84.05
2022-11-05T05:12:32.787Z,84.31
2022-11-05T05:15:05.372Z,84.27
2022-11-05T05:17:37.002Z,84.26
2022-11-05T05:20:32.222Z,84.13
2022-11-05T05:23:04.012Z,83.99
2022-11-05T05:25:35.769Z,83.87
2022-11-05T05:28:07.629Z,83.74
2022-11-05T05:30:39.288Z,83.72
2022-11-05T05:33:11.215Z,83.62
2022-11-05T05:35:43.104Z,83.37
2022-11-05T05:38:14.743Z,83.29
2022-11-05T05:40:46.551Z,83.27
2022-11-05T05:43:18.529Z,83.26
2022-11-05T05:45:50.694Z,83.25
2022-11-05T05:48:22.265Z,83.22
2022-11-05T05:50:53.954Z,83.20
2022-11-05T05:53:25.812Z,83.26
2022-11-05T05:55:58.107Z,83.20
2022-11-05T05:58:34.474Z,83.18
2022-11-05T06:01:15.576Z,83.20
2022-11-05T06:03:51.460Z,83.19
2022-11-05T06:06:23.113Z,83.19
2022-11-05T06:08:55.532Z,83.22
2022-11-05T06:11:27.619Z,83.20
2022-11-05T06:13:59.221Z,83.18
2022-11-05T06:16:35.573Z,83.06
2022-11-05T06:19:07.547Z,83.24
2022-11-05T06:21:39.297Z,83.16
2022-11-05T06:24:12.845Z,83.14
2022-11-05T06:26:45.212Z,83.13
2022-11-05T06:29:16.873Z,83.05
2022-11-05T06:31:48.627Z,83.13
2022-11-05T06:34:20.226Z,83.11
2022-11-05T06:36:51.869Z,83.14
2022-11-05T06:39:23.891Z,83.06
2022-11-05T06:44:47.729Z,83.04
2022-11-05T06:47:20.070Z,82.82
2022-11-05T06:49:52.028Z,82.96
2022-11-05T06:52:23.857Z,82.87
2022-11-05T06:54:55.747Z,82.80
2022-11-05T06:57:27.572Z,82.69
2022-11-05T07:00:03.303Z,82.91
2022-11-05T07:02:45.866Z,82.78
2022-11-05T07:05:18.646Z,82.76
2022-11-05T07:07:50.288Z,82.82
2022-11-05T07:10:21.913Z,82.74
2022-11-05T07:12:53.614Z,82.76
2022-11-05T07:15:25.265Z,82.75
2022-11-05T07:18:01.392Z,82.83
2022-11-05T07:20:34.468Z,82.86
2022-11-05T07:23:08.006Z,82.80
2022-11-05T07:25:40.093Z,82.78
2022-11-05T07:28:14.512Z,82.64
2022-11-05T07:30:46.471Z,82.72
2022-11-05T07:33:18.175Z,82.57
2022-11-05T07:35:49.784Z,82.60
2022-11-05T07:38:21.420Z,82.28
2022-11-05T07:40:53.157Z,82.50
2022-11-05T07:43:24.828Z,82.41
2022-11-05T07:45:56.726Z,82.39
2022-11-05T07:48:28.400Z,82.25
2022-11-05T07:51:00.038Z,82.28
2022-11-05T07:53:31.736Z,82.13
2022-11-05T07:56:03.349Z,82.08
2022-11-05T07:58:36.987Z,82.05
2022-11-05T08:01:08.802Z,81.90
2022-11-05T08:03:40.554Z,81.88
2022-11-05T08:06:12.309Z,81.73
2022-11-05T08:08:44.496Z,81.30
2022-11-05T08:11:16.265Z,81.32
2022-11-05T08:13:48.098Z,81.35
2022-11-05T08:16:20.159Z,81.30
2022-11-05T08:18:51.847Z,81.32
2022-11-05T08:21:23.395Z,81.38
2022-11-05T08:23:55.358Z,80.72
2022-11-05T08:26:27.020Z,80.06
2022-11-05T08:29:00.505Z,80.24
2022-11-05T08:31:32.198Z,80.11
2022-11-05T08:34:03.973Z,80.07
2022-11-05T08:36:37.193Z,80.32
2022-11-05T08:39:14.245Z,79.62
2022-11-05T08:41:48.470Z,79.74
2022-11-05T08:44:20.232Z,79.48
2022-11-05T08:46:52.130Z,79.86
2022-11-05T08:49:23.898Z,80.17
2022-11-05T08:51:55.578Z,79.98
2022-11-05T08:54:27.279Z,80.36
2022-11-05T08:56:58.945Z,80.06
2022-11-05T08:59:31.557Z,80.16
2022-11-05T09:02:03.357Z,80.04
2022-11-05T09:04:35.134Z,79.95
2022-11-05T09:07:06.791Z,79.83
2022-11-05T09:09:38.528Z,79.86
2022-11-05T09:12:13.135Z,79.84
2022-11-05T09:14:45.092Z,80.02
2022-11-05T09:17:21.949Z,79.92
2022-11-05T09:19:53.570Z,79.78
2022-11-05T09:22:25.188Z,79.89
2022-11-05T09:24:56.852Z,79.94
2022-11-05T09:27:28.500Z,79.58
2022-11-05T09:30:00.161Z,79.53
2022-11-05T09:32:33.147Z,78.92
2022-11-05T09:35:05.068Z,78.74
2022-11-05T09:37:37.620Z,78.62
2022-11-05T09:40:21.828Z,78.93
2022-11-05T09:42:55.235Z,78.88
2022-11-05T09:45:29.184Z,78.50
2022-11-05T09:48:05.467Z,78.59
2022-11-05T09:50:41.364Z,78.44
2022-11-05T09:53:16.955Z,77.99
2022-11-05T09:55:51.836Z,78.31
2022-11-05T09:58:29.107Z,78.30
2022-11-05T10:01:01.657Z,78.20
2022-11-05T10:03:35.601Z,78.18
2022-11-05T10:06:12.282Z,78.33
2022-11-05T10:08:46.397Z,77.79
2022-11-05T10:11:22.287Z,77.44
2022-11-05T10:13:58.051Z,76.79
2022-11-05T10:16:33.674Z,77.59
2022-11-05T10:19:09.917Z,77.55
2022-11-05T10:22:05.692Z,77.28
2022-11-05T10:24:33.680Z,76.99
2022-11-05T10:27:06.464Z,76.91
2022-11-05T10:29:38.579Z,76.67
2022-11-05T10:32:12.168Z,75.96
2022-11-05T10:34:44.860Z,76.16
2022-11-05T10:37:16.579Z,75.98
2022-11-05T10:39:48.227Z,75.70
2022-11-05T10:42:48.071Z,75.20
2022-11-05T10:45:30.334Z,75.72
2022-11-05T10:48:27.141Z,74.87
2022-11-05T10:50:59.053Z,74.57
2022-11-05T10:53:34.073Z,72.84
2022-11-05T10:56:26.211Z,72.53
2022-11-05T10:59:00.046Z,72.84
2022-11-05T11:01:32.374Z,73.51
2022-11-05T11:04:21.624Z,73.37
2022-11-05T11:06:55.717Z,71.26
2022-11-05T11:09:30.364Z,72.32
2022-11-05T11:12:15.049Z,72.94
2022-11-05T11:15:03.025Z,72.60
2022-11-05T11:17:35.077Z,72.50
2022-11-05T11:20:24.156Z,71.72
2022-11-05T11:23:14.036Z,70.51
2022-11-05T11:25:52.996Z,71.20
2022-11-05T11:28:29.691Z,71.27
2022-11-05T11:31:10.053Z,69.16
2022-11-05T11:33:45.152Z,68.43
2022-11-05T11:36:20.032Z,68.33
2022-11-05T11:38:51.794Z,67.25
2022-11-05T11:41:28.908Z,68.85
2022-11-05T11:44:05.447Z,68.01
2022-11-05T11:46:38.135Z,67.66
2022-11-05T11:49:31.149Z,67.45
2022-11-05T11:52:06.967Z,66.38
2022-11-05T11:54:38.632Z,64.31
2022-11-05T11:57:23.395Z,64.92
2022-11-05T12:00:11.806Z,66.87
2022-11-05T12:03:01.905Z,66.84
2022-11-05T12:05:46.119Z,66.78
2022-11-05T12:08:45.538Z,65.55
2022-11-05T12:11:24.814Z,65.22
2022-11-05T12:14:04.505Z,66.31
2022-11-05T12:17:00.380Z,64.14
2022-11-05T12:19:49.870Z,65.10
2022-11-05T12:22:31.672Z,65.27
2022-11-05T12:25:20.158Z,65.15
2022-11-05T12:28:24.301Z,63.26
2022-11-05T12:31:04.097Z,63.48
2022-11-05T12:33:51.626Z,62.95
2022-11-05T12:36:40.807Z,64.87
2022-11-05T12:39:30.320Z,65.54
2022-11-05T12:42:09.408Z,65.97
2022-11-05T12:44:56.310Z,65.32
2022-11-05T12:47:44.424Z,64.77
2022-11-05T12:50:23.565Z,64.16
2022-11-05T12:53:22.044Z,62.99
2022-11-05T12:55:55.093Z,63.62
2022-11-05T12:58:31.574Z,63.27
2022-11-05T13:01:07.793Z,60.93
2022-11-05T13:03:45.408Z,60.90
2022-11-05T13:06:20.405Z,59.15
2022-11-05T13:08:59.767Z,60.76
2022-11-05T13:11:35.780Z,59.67
2022-11-05T13:14:14.967Z,61.89
2022-11-05T13:16:50.599Z,60.70
2022-11-05T13:19:26.247Z,61.60
2022-11-05T13:22:07.928Z,60.24
2022-11-05T13:24:45.686Z,60.19
2022-11-05T13:27:36.063Z,60.13
2022-11-05T13:30:26.728Z,58.41
2022-11-05T13:33:03.145Z,59.44
2022-11-05T13:35:41.824Z,57.07
2022-11-05T13:38:39.047Z,58.55
2022-11-05T13:41:25.281Z,56.46
2022-11-05T13:44:24.720Z,57.47
2022-11-05T13:47:16.769Z,58.52
2022-11-05T13:50:13.186Z,56.98
2022-11-05T13:53:01.491Z,55.70
2022-11-05T13:56:10.524Z,57.44
2022-11-05T13:59:05.635Z,58.73
2022-11-05T14:01:50.433Z,57.75
2022-11-05T14:04:35.711Z,58.91
2022-11-05T14:07:13.712Z,57.69
2022-11-05T14:09:45.962Z,57.62
2022-11-05T14:12:26.666Z,58.34
2022-11-05T14:15:05.669Z,59.72
2022-11-05T14:17:57.583Z,59.98
2022-11-05T14:20:44.858Z,59.39
2022-11-05T14:23:51.961Z,59.79
2022-11-05T14:26:28.611Z,58.80
2022-11-05T14:29:37.383Z,60.07
2022-11-05T14:32:28.740Z,60.44
2022-11-05T14:35:05.603Z,60.06
2022-11-05T14:37:41.183Z,60.61
2022-11-05T14:40:37.392Z,60.71
2022-11-05T14:43:18.966Z,61.45
2022-11-05T14:46:00.690Z,61.57
2022-11-05T14:48:40.579Z,61.41
2022-11-05T14:51:32.582Z,61.71
2022-11-05T14:54:07.902Z,61.87
2022-11-05T14:56:55.907Z,62.02
2022-11-05T14:59:54.002Z,62.21
2022-11-05T15:02:28.732Z,62.48
2022-11-05T15:05:35.657Z,62.64
2022-11-05T15:08:31.056Z,62.94
2022-11-05T15:11:13.714Z,63.09
2022-11-05T15:13:59.559Z,63.42
2022-11-05T15:16:36.657Z,63.57
2022-11-05T15:19:17.770Z,63.79
2022-11-05T15:21:48.412Z,64.03
2022-11-05T15:24:21.712Z,64.26
2022-11-05T15:27:02.444Z,64.44
2022-11-05T15:29:34.751Z,64.56
2022-11-05T15:32:15.996Z,64.76
2022-11-05T15:34:55.967Z,64.93
2022-11-05T15:37:29.108Z,65.14
2022-11-05T15:40:00.814Z,65.16
2022-11-05T15:42:32.825Z,65.43
2022-11-05T15:45:04.547Z,65.53
2022-11-05T15:47:36.526Z,65.56
2022-11-05T15:50:15.474Z,65.78
2022-11-05T15:53:04.820Z,65.88
2022-11-05T15:55:55.250Z,65.92
2022-11-05T15:58:28.156Z,66.14
2022-11-05T16:01:00.132Z,66.40
2022-11-05T16:03:34.902Z,66.61
2022-11-05T16:06:11.614Z,66.64
2022-11-05T16:08:49.430Z,66.72
2022-11-05T16:11:27.301Z,66.83
2022-11-05T16:14:16.362Z,67.03
2022-11-05T16:16:48.634Z,67.16
2022-11-05T16:19:42.786Z,67.25
2022-11-05T16:22:14.610Z,67.49
2022-11-05T16:24:49.333Z,67.52
2022-11-05T16:27:24.301Z,67.66
2022-11-05T16:29:58.163Z,67.65
2022-11-05T16:32:32.030Z,67.86
2022-11-05T16:35:06.358Z,67.87
2022-11-05T16:37:49.154Z,67.94
2022-11-05T16:40:29.568Z,68.03
2022-11-05T16:43:18.066Z,68.03
2022-11-05T16:45:50.072Z,68.23
2022-11-05T16:48:21.718Z,68.30
2022-11-05T16:50:54.416Z,68.33
2022-11-05T16:53:26.069Z,68.60
2022-11-05T16:55:57.731Z,68.62
2022-11-05T16:58:29.849Z,68.49
2022-11-05T17:01:05.272Z,68.69
2022-11-05T17:03:37.213Z,68.75
2022-11-05T17:06:10.862Z,68.64
2022-11-05T17:08:44.413Z,68.72
2022-11-05T17:11:19.146Z,69.02
2022-11-05T17:13:51.239Z,69.03
2022-11-05T17:16:22.870Z,69.09
2022-11-05T17:18:54.443Z,69.26
2022-11-05T17:21:26.139Z,69.27
2022-11-05T17:23:57.847Z,69.32
2022-11-05T17:26:29.614Z,69.52
2022-11-05T17:29:02.442Z,69.62
2022-11-05T17:31:34.150Z,69.55
2022-11-05T17:34:05.783Z,69.65
2022-11-05T17:36:39.690Z,69.71
2022-11-05T17:39:12.840Z,69.93
2022-11-05T17:41:44.804Z,69.86
2022-11-05T17:44:16.535Z,69.80
2022-11-05T17:46:48.154Z,69.89
2022-11-05T17:49:19.736Z,69.81
2022-11-05T17:51:51.494Z,69.77
2022-11-05T17:54:23.136Z,69.75
2022-11-05T17:56:54.794Z,69.91
2022-11-05T17:59:26.567Z,69.99
2022-11-05T18:01:58.609Z,70.00
2022-11-05T18:04:30.658Z,69.86
2022-11-05T18:07:02.382Z,69.93
2022-11-05T18:09:34.315Z,70.12
2022-11-05T18:12:08.491Z,70.07
2022-11-05T18:14:40.735Z,70.00
2022-11-05T18:17:12.442Z,70.16
2022-11-05T18:19:44.222Z,70.30
2022-11-05T18:22:18.584Z,70.33
2022-11-05T18:24:50.477Z,70.39
2022-11-05T18:27:24.610Z,70.37
2022-11-05T18:29:56.474Z,70.27
2022-11-05T18:32:28.532Z,70.36
2022-11-05T18:35:00.345Z,70.46
2022-11-05T18:37:32.089Z,70.56
2022-11-05T18:40:03.805Z,70.60
2022-11-05T18:42:35.578Z,70.67
2022-11-05T18:45:10.795Z,70.64
2022-11-05T18:47:42.611Z,70.56
2022-11-05T18:50:14.701Z,70.68
2022-11-05T18:52:46.765Z,70.82
2022-11-05T18:55:18.559Z,70.84
2022-11-05T18:57:50.368Z,70.79
2022-11-05T19:00:22.458Z,70.80
2022-11-05T19:02:54.447Z,70.79
2022-11-05T19:05:30.109Z,70.86
2022-11-05T19:08:02.361Z,70.73
2022-11-05T19:10:34.012Z,70.60
2022-11-05T19:13:05.947Z,70.61
2022-11-05T19:15:37.606Z,70.67
2022-11-05T19:18:09.422Z,70.69
2022-11-05T19:20:41.289Z,70.61
2022-11-05T19:23:13.015Z,70.63
2022-11-05T19:25:44.766Z,70.77
2022-11-05T19:28:18.969Z,70.61
2022-11-05T19:30:51.004Z,70.80
2022-11-05T19:33:22.726Z,70.97
2022-11-05T19:35:54.439Z,70.79
2022-11-05T19:38:27.225Z,70.87
2022-11-05T19:40:58.935Z,71.03
2022-11-05T19:43:30.742Z,71.02
2022-11-05T19:46:02.616Z,71.17
2022-11-05T19:48:34.522Z,70.97
2022-11-05T19:51:09.733Z,71.19
2022-11-05T19:53:42.524Z,70.99
2022-11-05T19:56:16.200Z,71.17
2022-11-05T19:58:48.190Z,71.21
2022-11-05T20:01:21.105Z,71.04
2022-11-05T20:03:53.497Z,71.23
2022-11-05T20:06:29.419Z,71.36
2022-11-05T20:11:56.698Z,71.18
2022-11-05T20:14:29.884Z,71.27
2022-11-05T20:17:01.679Z,71.48
2022-11-05T20:19:33.637Z,71.43
2022-11-05T20:22:05.425Z,71.66
2022-11-05T20:24:37.530Z,71.63
2022-11-05T20:27:09.536Z,71.78
2022-11-05T20:29:41.453Z,71.80
2022-11-05T20:32:14.320Z,72.20
2022-11-05T20:34:46.050Z,72.11
2022-11-05T20:37:17.713Z,72.11
2022-11-05T20:39:49.523Z,71.96
2022-11-05T20:42:22.776Z,72.18
2022-11-05T20:44:54.774Z,72.25
2022-11-05T20:47:26.527Z,72.14
2022-11-05T20:49:58.541Z,72.32
2022-11-05T20:52:30.743Z,72.15
2022-11-05T20:55:03.432Z,72.00
2022-11-05T20:57:35.164Z,71.81
2022-11-05T21:00:12.852Z,71.83
2022-11-05T21:02:44.616Z,71.67
2022-11-05T21:05:22.149Z,71.77
2022-11-05T21:07:54.041Z,71.66
2022-11-05T21:10:27.019Z,71.63
2022-11-05T21:12:59.217Z,71.65
2022-11-05T21:15:31.027Z,71.48
2022-11-05T21:18:02.737Z,71.33
2022-11-05T21:20:34.396Z,71.51
2022-11-05T21:23:06.208Z,71.57
2022-11-05T21:25:40.131Z,71.61
2022-11-05T21:28:13.229Z,71.58
2022-11-05T21:30:50.838Z,71.57
2022-11-05T21:33:22.487Z,71.49
2022-11-05T21:35:54.552Z,71.54
2022-11-05T21:38:26.837Z,71.49
2022-11-05T21:41:01.074Z,71.41
2022-11-05T21:43:32.834Z,71.45
2022-11-05T21:46:05.692Z,71.52
2022-11-05T21:48:37.462Z,71.69
2022-11-05T21:51:28.242Z,71.58
2022-11-05T21:54:26.167Z,71.51
2022-11-05T21:57:20.775Z,71.51
2022-11-05T21:59:57.577Z,71.44
2022-11-05T22:02:29.670Z,71.56
2022-11-05T22:05:03.273Z,71.63
2022-11-05T22:07:37.449Z,71.71
2022-11-05T22:10:16.131Z,71.77
2022-11-05T22:12:48.549Z,71.64
2022-11-05T22:15:20.493Z,71.60
2022-11-05T22:17:53.412Z,71.58
2022-11-05T22:20:25.724Z,71.51
2022-11-05T22:23:02.227Z,71.51
2022-11-05T22:25:36.574Z,71.31
2022-11-05T22:28:12.559Z,71.47
2022-11-05T22:30:53.404Z,71.62
2022-11-05T22:33:25.912Z,71.55
2022-11-05T22:35:57.529Z,71.76
2022-11-05T22:38:29.214Z,72.10
2022-11-05T22:41:01.263Z,72.10
2022-11-05T22:43:34.577Z,72.32
2022-11-05T22:46:12.658Z,72.42
2022-11-05T22:48:46.760Z,72.62
2022-11-05T22:51:20.950Z,72.79
2022-11-05T22:53:52.985Z,72.80
2022-11-05T22:56:27.116Z,72.83
2022-11-05T22:58:59.614Z,72.72
2022-11-05T23:01:31.568Z,72.82
2022-11-05T23:04:03.229Z,72.77
2022-11-05T23:06:52.832Z,72.78
2022-11-05T23:09:43.556Z,72.59
2022-11-05T23:12:24.908Z,72.50
2022-11-05T23:14:55.960Z,72.28
2022-11-05T23:17:45.944Z,72.23
2022-11-05T23:20:37.155Z,72.32
2022-11-05T23:23:27.777Z,72.22
2022-11-05T23:26:21.259Z,72.35
2022-11-05T23:28:53.053Z,72.42
2022-11-05T23:31:42.247Z,72.49
2022-11-05T23:34:13.880Z,72.50
2022-11-05T23:37:03.000Z,72.66
2022-11-05T23:39:39.659Z,72.55
2022-11-05T23:42:31.562Z,72.60
2022-11-05T23:45:20.707Z,72.68
2022-11-05T23:48:10.031Z,72.39
2022-11-05T23:50:42.550Z,72.39
2022-11-05T23:53:14.601Z,72.51
2022-11-05T23:55:46.705Z,72.61
2022-11-05T23:58:19.143Z,72.64
